Sw Cap Ferrat I — 3FZK6 — position and weather

sailwx.info

Track history (hours):
 
Tides and Currents Weather Stations Pressure Air Temp Water Temp Dewpoint Dewpoint Depression Visibility Wind Speed Wind Dir Waves Ship Positions

Sw Cap Ferrat I

Last reported at 2016-Jul-12 00:33 UTC. Time now 2016-Jul-31 03:31 UTC.
Position N 49°46' W 003°59'.
Warning: this ship's position is 19 days out of date.

Length 183 m; draft 10.7 m.

Type: Ship (hazmat cat A). MMSI: 374419000.

Date/timePositionNaut miles runAvg speedWind from/ knotsBaromVisibWave heightAir tempDewpointWater temp
2016-Jul-12 00:33N 49°46' W 003°59'1111.0
2016-Jul-11 23:33N 49°50' W 003°43'1110.8
2016-Jul-11 22:33N 49°54' W 003°27'1110.5
2016-Jul-11 21:33N 49°57' W 003°12'1211.8
2016-Jul-11 20:33N 50°01' W 002°55'1312.8
2016-Jul-11 19:33N 50°05' W 002°35'1413.5
2016-Jul-11 18:33N 50°08' W 002°15'2913.2
2016-Jul-11 16:19N 50°16' W 001°31'1111.4
2016-Jul-11 15:23N 50°19' W 001°15'19 9.4
2016-Jul-11 13:20N 50°24' W 000°45'7 8.7
2016-Jul-11 12:33N 50°26' W 000°35'9 9.4
2016-Jul-11 11:33N 50°28' W 000°21'1110.6
2016-Jul-11 10:33N 50°31' W 000°05'1111.5
2016-Jul-11 09:33N 50°34' E 000°12'1311.9
2016-Jul-11 08:29N 50°38' E 000°32'2311.4
2016-Jul-11 06:28N 50°51' E 001°02'18 9.7
2016-Jul-11 04:33N 51°03' E 001°24'9 8.5
2016-Jul-11 03:33N 51°08' E 001°35'10 9.5
2016-Jul-11 02:33N 51°14' E 001°46'1211.6
2016-Jul-11 01:33N 51°24' E 001°55'1312.8
2016-Jul-11 00:33N 51°34' E 002°08'1312.6
2016-Jul-10 23:32N 51°44' E 002°22'3811.2
2016-Jul-10 20:09N 52°12' E 003°02'710.1
2016-Jul-10 19:30N 52°18' E 003°09'9 9.8
2016-Jul-10 18:32N 52°24' E 003°20'10 9.9
2016-Jul-10 17:33N 52°28' E 003°35'1010.2
2016-Jul-10 16:33N 52°31' E 003°50'1211.6
2016-Jul-10 15:33N 52°31' E 004°09'1111.1
2016-Jul-10 14:33N 52°29' E 004°27'6 5.7
2016-Jul-10 13:33N 52°28' E 004°37'0 0.0
2016-Jul-10 12:33N 52°28' E 004°37'0 0.1
2016-Jul-10 11:34N 52°28' E 004°37'6 5.9
2016-Jul-10 10:34N 52°26' E 004°46'3 2.7
2016-Jul-10 09:32N 52°24' E 004°50'0 0.0
2016-Jul-10 08:23N 52°24' E 004°50'0 0.0
2016-Jul-10 07:32N 52°24' E 004°50'0 0.0
2016-Jul-10 06:29N 52°24' E 004°50'0 0.0
2016-Jul-10 05:26N 52°24' E 004°50'0 0.0
2016-Jul-10 04:29N 52°24' E 004°50'0 0.0
2016-Jul-10 03:32N 52°24' E 004°50'0 0.0
2016-Jul-10 02:32N 52°24' E 004°50'0 0.0
2016-Jul-10 01:23N 52°24' E 004°50'0 0.0
2016-Jul-10 00:29N 52°24' E 004°50'0 0.0
2016-Jul-09 23:26N 52°24' E 004°50'0 0.0
2016-Jul-09 22:29N 52°24' E 004°50'0 0.0
2016-Jul-09 21:32N 52°24' E 004°50'0 0.0
2016-Jul-09 20:29N 52°24' E 004°50'0 0.0
2016-Jul-09 19:29N 52°24' E 004°50'0 0.0
2016-Jul-09 18:32N 52°24' E 004°50'0 0.0
2016-Jul-09 17:32N 52°24' E 004°50'0 0.0
2016-Jul-09 16:32N 52°24' E 004°50'0 0.0
2016-Jul-09 15:29N 52°24' E 004°50'0 0.0
2016-Jul-09 14:29N 52°24' E 004°50'0 0.0
2016-Jul-09 13:29N 52°24' E 004°50'0 0.0
2016-Jul-09 12:32N 52°24' E 004°50'0 0.0
2016-Jul-09 11:26N 52°24' E 004°50'0 0.0
2016-Jul-09 10:29N 52°24' E 004°50'0 0.0
2016-Jul-09 09:32N 52°24' E 004°50'0 0.0
2016-Jul-09 08:26N 52°24' E 004°50'0 0.0
2016-Jul-09 07:29N 52°24' E 004°50'0 0.0
2016-Jul-09 06:32N 52°24' E 004°50'0 0.0
2016-Jul-09 04:32N 52°24' E 004°50'0 0.0
2016-Jul-09 03:29N 52°24' E 004°50'0 0.0
2016-Jul-09 02:23N 52°24' E 004°50'0 0.0
2016-Jul-09 01:26N 52°24' E 004°50'0 0.0
2016-Jul-09 00:29N 52°24' E 004°50'0 0.0
2016-Jul-08 23:32N 52°24' E 004°50'0 0.0
2016-Jul-08 22:32N 52°24' E 004°50'0 0.0
2016-Jul-08 21:29N 52°24' E 004°50'0 0.0
2016-Jul-08 20:32N 52°24' E 004°50'0 0.0
2016-Jul-08 19:32N 52°24' E 004°50'0 0.0
2016-Jul-08 18:26N 52°24' E 004°50'0 0.0
2016-Jul-08 17:32N 52°24' E 004°50'0 0.0
2016-Jul-08 16:32N 52°24' E 004°50'0 0.0
2016-Jul-08 15:29N 52°24' E 004°50'0 0.0
2016-Jul-08 14:32N 52°24' E 004°50'0 0.0
2016-Jul-08 13:32N 52°24' E 004°50'0 0.0
2016-Jul-08 12:26N 52°24' E 004°50'0 0.0
2016-Jul-08 11:17N 52°24' E 004°50'0 0.0
2016-Jul-08 10:32N 52°24' E 004°50'0 0.0
2016-Jul-08 09:32N 52°24' E 004°50'0 0.0
2016-Jul-08 08:32N 52°24' E 004°50'0 0.0
2016-Jul-08 07:32N 52°24' E 004°50'0 0.0
2016-Jul-08 06:32N 52°24' E 004°50'0 0.0
2016-Jul-08 04:32N 52°24' E 004°50'0 0.0
2016-Jul-08 03:32N 52°24' E 004°50'0 0.0
2016-Jul-08 02:32N 52°24' E 004°50'0 0.0
2016-Jul-08 01:29N 52°24' E 004°50'0 0.0
2016-Jul-08 00:32N 52°24' E 004°50'0 0.0
2016-Jul-07 23:32N 52°24' E 004°50'0 0.0
2016-Jul-07 22:32N 52°24' E 004°50'0 0.0
2016-Jul-07 21:32N 52°24' E 004°50'0 0.0
2016-Jul-07 20:32N 52°24' E 004°50'0 0.0
2016-Jul-07 19:29N 52°24' E 004°50'0 0.0
2016-Jul-07 18:32N 52°24' E 004°50'0 0.0
2016-Jul-07 17:32N 52°24' E 004°50'0 0.0
2016-Jul-07 16:32N 52°24' E 004°50'0 0.0
2016-Jul-07 15:34N 52°24' E 004°50'5 5.4
2016-Jul-07 14:33N 52°27' E 004°42'4 3.9
2016-Jul-07 13:34N 52°28' E 004°36'7 7.2
2016-Jul-07 12:33N 52°29' E 004°24'3 3.4
2016-Jul-07 11:33N 52°28' E 004°19'7 6.9
2016-Jul-07 10:33N 52°29' E 004°08'4 4.3
2016-Jul-07 09:33N 52°26' E 004°02'0 0.1
2016-Jul-07 08:33N 52°27' E 004°02'0 0.0
2016-Jul-07 07:27N 52°27' E 004°02'2 1.9
2016-Jul-07 06:33N 52°28' E 003°59'10 9.5
2016-Jul-07 05:33N 52°26' E 003°44'1414.3
2016-Jul-07 04:33N 52°17' E 003°26'1514.9
2016-Jul-07 03:33N 52°08' E 003°06'1515.0
2016-Jul-07 02:34N 51°57' E 002°49'1413.5
2016-Jul-07 01:33N 51°54' E 002°28'1313.4
2016-Jul-07 00:33N 51°52' E 002°07'1211.9
2016-Jul-06 23:33N 51°46' E 001°50'1010.4
2016-Jul-06 22:33N 51°36' E 001°46'1110.7
2016-Jul-06 21:33N 51°29' E 001°33'4 4.4
2016-Jul-06 20:33N 51°31' E 001°27'9 9.4
2016-Jul-06 19:34N 51°34' E 001°13'1413.5
2016-Jul-06 18:34N 51°29' E 000°52'9 8.7
2016-Jul-06 17:34N 51°30' E 000°38'0 0.0
2016-Jul-06 16:33N 51°30' E 000°38'0 0.0
2016-Jul-06 15:34N 51°30' E 000°38'0 0.1
2016-Jul-06 14:33N 51°30' E 000°38'0 0.2
2016-Jul-06 13:33N 51°30' E 000°38'6 6.1
2016-Jul-06 12:34N 51°30' E 000°28'6 6.2
2016-Jul-06 11:33N 51°28' E 000°18'0 0.0
2016-Jul-06 10:33N 51°28' E 000°18'0 0.0
2016-Jul-06 09:34N 51°28' E 000°18'0 0.0
2016-Jul-06 08:33N 51°28' E 000°18'0 0.0
2016-Jul-06 07:34N 51°28' E 000°18'0 0.0
2016-Jul-06 06:33N 51°28' E 000°18'0 0.0
2016-Jul-06 05:33N 51°28' E 000°18'0 0.0
2016-Jul-06 04:33N 51°28' E 000°18'0 0.0
2016-Jul-06 03:33N 51°28' E 000°18'0 0.0
2016-Jul-06 02:33N 51°28' E 000°18'0 0.0
2016-Jul-06 01:33N 51°28' E 000°18'0 0.0
2016-Jul-06 00:33N 51°28' E 000°18'0 0.0
2016-Jul-05 23:33N 51°28' E 000°18'0 0.0
2016-Jul-05 22:33N 51°28' E 000°18'0 0.0
2016-Jul-05 21:33N 51°28' E 000°18'0 0.0
2016-Jul-05 20:33N 51°28' E 000°18'0 0.0
2016-Jul-05 19:33N 51°28' E 000°18'0 0.0
2016-Jul-05 18:33N 51°28' E 000°18'0 0.0
2016-Jul-05 17:33N 51°28' E 000°18'0 0.0
2016-Jul-05 16:34N 51°28' E 000°18'0 0.0
2016-Jul-05 15:33N 51°28' E 000°18'0 0.0
2016-Jul-05 14:33N 51°28' E 000°18'0 0.0
2016-Jul-05 13:34N 51°28' E 000°18'0 0.0
2016-Jul-05 12:33N 51°28' E 000°18'0 0.0
2016-Jul-05 11:34N 51°28' E 000°18'0 0.0
2016-Jul-05 10:34N 51°28' E 000°18'0 0.0
2016-Jul-05 09:34N 51°28' E 000°18'0 0.0
2016-Jul-05 08:33N 51°28' E 000°18'0 0.0
2016-Jul-05 07:34N 51°28' E 000°18'0 0.0
2016-Jul-05 06:34N 51°28' E 000°18'0 0.0
2016-Jul-05 04:33N 51°28' E 000°18'0 0.0
2016-Jul-05 03:34N 51°28' E 000°18'0 0.0
2016-Jul-05 02:34N 51°28' E 000°18'0 0.0
2016-Jul-05 01:34N 51°28' E 000°18'0 0.0
2016-Jul-05 00:33N 51°28' E 000°18'0 0.0
2016-Jul-04 23:33N 51°28' E 000°18'0 0.0
2016-Jul-04 22:34N 51°28' E 000°18'0 0.0
2016-Jul-04 21:34N 51°28' E 000°18'0 0.0
2016-Jul-04 20:34N 51°28' E 000°18'0 0.0
2016-Jul-04 19:33N 51°28' E 000°18'0 0.0
2016-Jul-04 18:33N 51°28' E 000°18'0 0.0
2016-Jul-04 17:33N 51°28' E 000°18'0 0.0
2016-Jul-04 16:33N 51°28' E 000°18'0 0.0
2016-Jul-04 15:33N 51°28' E 000°18'0 0.0
2016-Jul-04 14:33N 51°28' E 000°18'0 0.0
2016-Jul-04 13:33N 51°28' E 000°18'0 0.0
2016-Jul-04 12:33N 51°28' E 000°18'7 7.4
2016-Jul-04 11:34N 51°30' E 000°30'1414.0
2016-Jul-04 10:33N 51°29' E 000°52'1414.1
2016-Jul-04 09:33N 51°29' E 001°15'10 9.9
2016-Jul-04 08:33N 51°27' E 001°30'7 7.2
2016-Jul-04 07:34N 51°32' E 001°38'1211.7
2016-Jul-04 06:33N 51°43' E 001°45'1211.8
2016-Jul-04 05:34N 51°51' E 001°58'1312.7
2016-Jul-04 04:33N 51°57' E 002°17'1211.8
2016-Jul-04 03:31N 52°03' E 002°34'1111.1
2016-Jul-04 02:31N 52°13' E 002°42'1110.8
2016-Jul-04 01:30N 52°22' E 002°50'1111.1
2016-Jul-04 00:31N 52°32' E 002°57'5413.1
2016-Jul-03 20:23N 53°23' E 003°29'1113.4
2016-Jul-03 19:33N 53°33' E 003°35'1212.3
2016-Jul-03 18:33N 53°45' E 003°44'33011.2
2016-Jul-02 13:10N 57°50' E 010°17'711.6
2016-Jul-02 12:33N 57°52' E 010°30'1010.3
2016-Jul-02 11:33N 57°47' E 010°48'1212.1
2016-Jul-02 10:34N 57°39' E 011°04'1312.7
2016-Jul-02 09:33N 57°31' E 011°22'1313.0
2016-Jul-02 08:33N 57°19' E 011°32'5910.7
2016-Jul-02 03:05N 56°22' E 011°07'711.7
2016-Jul-02 02:31N 56°15' E 011°05'  
Track history (hours):
 
Tides and Currents Weather Stations Pressure Air Temp Water Temp Dewpoint Dewpoint Depression Visibility Wind Speed Wind Dir Waves Ship Positions

Sw Cap Ferrat I

Last reported at 2016-Jul-12 00:33 UTC. Time now 2016-Jul-31 03:31 UTC.
Position N 49°46' W 003°59'.
Warning: this ship's position is 19 days out of date.

Length 183 m; draft 10.7 m.

Type: Ship (hazmat cat A). MMSI: 374419000.

Date/timePositionNaut miles runAvg speedWind from/ knotsBaromVisibWave heightAir tempDewpointWater temp
2016-Jul-12 00:33N 49°46' W 003°59'1111.0
2016-Jul-11 23:33N 49°50' W 003°43'1110.8
2016-Jul-11 22:33N 49°54' W 003°27'1110.5
2016-Jul-11 21:33N 49°57' W 003°12'1211.8
2016-Jul-11 20:33N 50°01' W 002°55'1312.8
2016-Jul-11 19:33N 50°05' W 002°35'1413.5
2016-Jul-11 18:33N 50°08' W 002°15'2913.2
2016-Jul-11 16:19N 50°16' W 001°31'1111.4
2016-Jul-11 15:23N 50°19' W 001°15'19 9.4
2016-Jul-11 13:20N 50°24' W 000°45'7 8.7
2016-Jul-11 12:33N 50°26' W 000°35'9 9.4
2016-Jul-11 11:33N 50°28' W 000°21'1110.6
2016-Jul-11 10:33N 50°31' W 000°05'1111.5
2016-Jul-11 09:33N 50°34' E 000°12'1311.9
2016-Jul-11 08:29N 50°38' E 000°32'2311.4
2016-Jul-11 06:28N 50°51' E 001°02'18 9.7
2016-Jul-11 04:33N 51°03' E 001°24'9 8.5
2016-Jul-11 03:33N 51°08' E 001°35'10 9.5
2016-Jul-11 02:33N 51°14' E 001°46'1211.6
2016-Jul-11 01:33N 51°24' E 001°55'1312.8
2016-Jul-11 00:33N 51°34' E 002°08'1312.6
2016-Jul-10 23:32N 51°44' E 002°22'3811.2
2016-Jul-10 20:09N 52°12' E 003°02'710.1
2016-Jul-10 19:30N 52°18' E 003°09'9 9.8
2016-Jul-10 18:32N 52°24' E 003°20'10 9.9
2016-Jul-10 17:33N 52°28' E 003°35'1010.2
2016-Jul-10 16:33N 52°31' E 003°50'1211.6
2016-Jul-10 15:33N 52°31' E 004°09'1111.1
2016-Jul-10 14:33N 52°29' E 004°27'6 5.7
2016-Jul-10 13:33N 52°28' E 004°37'0 0.0
2016-Jul-10 12:33N 52°28' E 004°37'0 0.1
2016-Jul-10 11:34N 52°28' E 004°37'6 5.9
2016-Jul-10 10:34N 52°26' E 004°46'3 2.7
2016-Jul-10 09:32N 52°24' E 004°50'0 0.0
2016-Jul-10 08:23N 52°24' E 004°50'0 0.0
2016-Jul-10 07:32N 52°24' E 004°50'0 0.0
2016-Jul-10 06:29N 52°24' E 004°50'0 0.0
2016-Jul-10 05:26N 52°24' E 004°50'0 0.0
2016-Jul-10 04:29N 52°24' E 004°50'0 0.0
2016-Jul-10 03:32N 52°24' E 004°50'0 0.0
2016-Jul-10 02:32N 52°24' E 004°50'0 0.0
2016-Jul-10 01:23N 52°24' E 004°50'0 0.0
2016-Jul-10 00:29N 52°24' E 004°50'0 0.0
2016-Jul-09 23:26N 52°24' E 004°50'0 0.0
2016-Jul-09 22:29N 52°24' E 004°50'0 0.0
2016-Jul-09 21:32N 52°24' E 004°50'0 0.0
2016-Jul-09 20:29N 52°24' E 004°50'0 0.0
2016-Jul-09 19:29N 52°24' E 004°50'0 0.0
2016-Jul-09 18:32N 52°24' E 004°50'0 0.0
2016-Jul-09 17:32N 52°24' E 004°50'0 0.0
2016-Jul-09 16:32N 52°24' E 004°50'0 0.0
2016-Jul-09 15:29N 52°24' E 004°50'0 0.0
2016-Jul-09 14:29N 52°24' E 004°50'0 0.0
2016-Jul-09 13:29N 52°24' E 004°50'0 0.0
2016-Jul-09 12:32N 52°24' E 004°50'0 0.0
2016-Jul-09 11:26N 52°24' E 004°50'0 0.0
2016-Jul-09 10:29N 52°24' E 004°50'0 0.0
2016-Jul-09 09:32N 52°24' E 004°50'0 0.0
2016-Jul-09 08:26N 52°24' E 004°50'0 0.0
2016-Jul-09 07:29N 52°24' E 004°50'0 0.0
2016-Jul-09 06:32N 52°24' E 004°50'0 0.0
2016-Jul-09 04:32N 52°24' E 004°50'0 0.0
2016-Jul-09 03:29N 52°24' E 004°50'0 0.0
2016-Jul-09 02:23N 52°24' E 004°50'0 0.0
2016-Jul-09 01:26N 52°24' E 004°50'0 0.0
2016-Jul-09 00:29N 52°24' E 004°50'0 0.0
2016-Jul-08 23:32N 52°24' E 004°50'0 0.0
2016-Jul-08 22:32N 52°24' E 004°50'0 0.0
2016-Jul-08 21:29N 52°24' E 004°50'0 0.0
2016-Jul-08 20:32N 52°24' E 004°50'0 0.0
2016-Jul-08 19:32N 52°24' E 004°50'0 0.0
2016-Jul-08 18:26N 52°24' E 004°50'0 0.0
2016-Jul-08 17:32N 52°24' E 004°50'0 0.0
2016-Jul-08 16:32N 52°24' E 004°50'0 0.0
2016-Jul-08 15:29N 52°24' E 004°50'0 0.0
2016-Jul-08 14:32N 52°24' E 004°50'0 0.0
2016-Jul-08 13:32N 52°24' E 004°50'0 0.0
2016-Jul-08 12:26N 52°24' E 004°50'0 0.0
2016-Jul-08 11:17N 52°24' E 004°50'0 0.0
2016-Jul-08 10:32N 52°24' E 004°50'0 0.0
2016-Jul-08 09:32N 52°24' E 004°50'0 0.0
2016-Jul-08 08:32N 52°24' E 004°50'0 0.0
2016-Jul-08 07:32N 52°24' E 004°50'0 0.0
2016-Jul-08 06:32N 52°24' E 004°50'0 0.0
2016-Jul-08 04:32N 52°24' E 004°50'0 0.0
2016-Jul-08 03:32N 52°24' E 004°50'0 0.0
2016-Jul-08 02:32N 52°24' E 004°50'0 0.0
2016-Jul-08 01:29N 52°24' E 004°50'0 0.0
2016-Jul-08 00:32N 52°24' E 004°50'0 0.0
2016-Jul-07 23:32N 52°24' E 004°50'0 0.0
2016-Jul-07 22:32N 52°24' E 004°50'0 0.0
2016-Jul-07 21:32N 52°24' E 004°50'0 0.0
2016-Jul-07 20:32N 52°24' E 004°50'0 0.0
2016-Jul-07 19:29N 52°24' E 004°50'0 0.0
2016-Jul-07 18:32N 52°24' E 004°50'0 0.0
2016-Jul-07 17:32N 52°24' E 004°50'0 0.0
2016-Jul-07 16:32N 52°24' E 004°50'0 0.0
2016-Jul-07 15:34N 52°24' E 004°50'5 5.4
2016-Jul-07 14:33N 52°27' E 004°42'4 3.9
2016-Jul-07 13:34N 52°28' E 004°36'7 7.2
2016-Jul-07 12:33N 52°29' E 004°24'3 3.4
2016-Jul-07 11:33N 52°28' E 004°19'7 6.9
2016-Jul-07 10:33N 52°29' E 004°08'4 4.3
2016-Jul-07 09:33N 52°26' E 004°02'0 0.1
2016-Jul-07 08:33N 52°27' E 004°02'0 0.0
2016-Jul-07 07:27N 52°27' E 004°02'2 1.9
2016-Jul-07 06:33N 52°28' E 003°59'10 9.5
2016-Jul-07 05:33N 52°26' E 003°44'1414.3
2016-Jul-07 04:33N 52°17' E 003°26'1514.9
2016-Jul-07 03:33N 52°08' E 003°06'1515.0
2016-Jul-07 02:34N 51°57' E 002°49'1413.5
2016-Jul-07 01:33N 51°54' E 002°28'1313.4
2016-Jul-07 00:33N 51°52' E 002°07'1211.9
2016-Jul-06 23:33N 51°46' E 001°50'1010.4
2016-Jul-06 22:33N 51°36' E 001°46'1110.7
2016-Jul-06 21:33N 51°29' E 001°33'4 4.4
2016-Jul-06 20:33N 51°31' E 001°27'9 9.4
2016-Jul-06 19:34N 51°34' E 001°13'1413.5
2016-Jul-06 18:34N 51°29' E 000°52'9 8.7
2016-Jul-06 17:34N 51°30' E 000°38'0 0.0
2016-Jul-06 16:33N 51°30' E 000°38'0 0.0
2016-Jul-06 15:34N 51°30' E 000°38'0 0.1
2016-Jul-06 14:33N 51°30' E 000°38'0 0.2
2016-Jul-06 13:33N 51°30' E 000°38'6 6.1
2016-Jul-06 12:34N 51°30' E 000°28'6 6.2
2016-Jul-06 11:33N 51°28' E 000°18'0 0.0
2016-Jul-06 10:33N 51°28' E 000°18'0 0.0
2016-Jul-06 09:34N 51°28' E 000°18'0 0.0
2016-Jul-06 08:33N 51°28' E 000°18'0 0.0
2016-Jul-06 07:34N 51°28' E 000°18'0 0.0
2016-Jul-06 06:33N 51°28' E 000°18'0 0.0
2016-Jul-06 05:33N 51°28' E 000°18'0 0.0
2016-Jul-06 04:33N 51°28' E 000°18'0 0.0
2016-Jul-06 03:33N 51°28' E 000°18'0 0.0
2016-Jul-06 02:33N 51°28' E 000°18'0 0.0
2016-Jul-06 01:33N 51°28' E 000°18'0 0.0
2016-Jul-06 00:33N 51°28' E 000°18'0 0.0
2016-Jul-05 23:33N 51°28' E 000°18'0 0.0
2016-Jul-05 22:33N 51°28' E 000°18'0 0.0
2016-Jul-05 21:33N 51°28' E 000°18'0 0.0
2016-Jul-05 20:33N 51°28' E 000°18'0 0.0
2016-Jul-05 19:33N 51°28' E 000°18'0 0.0
2016-Jul-05 18:33N 51°28' E 000°18'0 0.0
2016-Jul-05 17:33N 51°28' E 000°18'0 0.0
2016-Jul-05 16:34N 51°28' E 000°18'0 0.0
2016-Jul-05 15:33N 51°28' E 000°18'0 0.0
2016-Jul-05 14:33N 51°28' E 000°18'0 0.0
2016-Jul-05 13:34N 51°28' E 000°18'0 0.0
2016-Jul-05 12:33N 51°28' E 000°18'0 0.0
2016-Jul-05 11:34N 51°28' E 000°18'0 0.0
2016-Jul-05 10:34N 51°28' E 000°18'0 0.0
2016-Jul-05 09:34N 51°28' E 000°18'0 0.0
2016-Jul-05 08:33N 51°28' E 000°18'0 0.0
2016-Jul-05 07:34N 51°28' E 000°18'0 0.0
2016-Jul-05 06:34N 51°28' E 000°18'0 0.0
2016-Jul-05 04:33N 51°28' E 000°18'0 0.0
2016-Jul-05 03:34N 51°28' E 000°18'0 0.0
2016-Jul-05 02:34N 51°28' E 000°18'0 0.0
2016-Jul-05 01:34N 51°28' E 000°18'0 0.0
2016-Jul-05 00:33N 51°28' E 000°18'0 0.0
2016-Jul-04 23:33N 51°28' E 000°18'0 0.0
2016-Jul-04 22:34N 51°28' E 000°18'0 0.0
2016-Jul-04 21:34N 51°28' E 000°18'0 0.0
2016-Jul-04 20:34N 51°28' E 000°18'0 0.0
2016-Jul-04 19:33N 51°28' E 000°18'0 0.0
2016-Jul-04 18:33N 51°28' E 000°18'0 0.0
2016-Jul-04 17:33N 51°28' E 000°18'0 0.0
2016-Jul-04 16:33N 51°28' E 000°18'0 0.0
2016-Jul-04 15:33N 51°28' E 000°18'0 0.0
2016-Jul-04 14:33N 51°28' E 000°18'0 0.0
2016-Jul-04 13:33N 51°28' E 000°18'0 0.0
2016-Jul-04 12:33N 51°28' E 000°18'7 7.4
2016-Jul-04 11:34N 51°30' E 000°30'1414.0
2016-Jul-04 10:33N 51°29' E 000°52'1414.1
2016-Jul-04 09:33N 51°29' E 001°15'10 9.9
2016-Jul-04 08:33N 51°27' E 001°30'7 7.2
2016-Jul-04 07:34N 51°32' E 001°38'1211.7
2016-Jul-04 06:33N 51°43' E 001°45'1211.8
2016-Jul-04 05:34N 51°51' E 001°58'1312.7
2016-Jul-04 04:33N 51°57' E 002°17'1211.8
2016-Jul-04 03:31N 52°03' E 002°34'1111.1
2016-Jul-04 02:31N 52°13' E 002°42'1110.8
2016-Jul-04 01:30N 52°22' E 002°50'1111.1
2016-Jul-04 00:31N 52°32' E 002°57'5413.1
2016-Jul-03 20:23N 53°23' E 003°29'1113.4
2016-Jul-03 19:33N 53°33' E 003°35'1212.3
2016-Jul-03 18:33N 53°45' E 003°44'33011.2
2016-Jul-02 13:10N 57°50' E 010°17'711.6
2016-Jul-02 12:33N 57°52' E 010°30'1010.3
2016-Jul-02 11:33N 57°47' E 010°48'1212.1
2016-Jul-02 10:34N 57°39' E 011°04'1312.7
2016-Jul-02 09:33N 57°31' E 011°22'1313.0
2016-Jul-02 08:33N 57°19' E 011°32'5910.7
2016-Jul-02 03:05N 56°22' E 011°07'711.7
2016-Jul-02 02:31N 56°15' E 011°05'  

Dump ship's entire track history